Estación Temperatura (°C) Hum
rel
(%)
Precip
(mm)
Viento (km/h) Actual.
Act Mín Máx Act Dir Máx
Vega Baja del Segura
Almoradí Los Gomares 19,7 17,9 20,4 87 0,5 4 ONO 13 2020-10-22 14:30:00
Cox El Jasminao 20,1 18,7 20,9 84 0,5 3 O 13 2020-10-22 14:20:00
Cox Centro 20,3 18,9 21,1 69 0,0 16 OSO 21 2020-10-22 14:30:00
Orihuela San Bartolomé Centro 19,7 18,0 20,1 86 0,7 6 ONO 13 2020-10-22 14:40:00
Orihuela La Campaneta 19,9 18,2 20,5 91 0,8 6 O 15 2020-10-22 14:30:00
Orihuela R. de Bonanza 20,1 19,0 20,7 89 1,0 0 NNO 13 2020-10-22 14:35:00
Orihuela Playa Flamenca 20,6 19,3 21,4 81 0,3 3 ESE 13 2020-10-22 14:30:00
Orihuela Lo Capitán 18,6 17,2 20,2 93 0,5 5 ESE 9 2020-10-22 14:30:00
Orihuela Arneva 19,4 18,2 20,9 91 0,8 6 SSO 17 2020-10-22 14:30:00
Orihuela CC La Zenia 20,8 19,4 21,4 82 0,3 3 NO 15 2020-10-22 14:20:00
Rojales Ciudad Quesada 19,8 18,7 21,0 87 0,3 0 NO 13 2020-10-22 14:30:00
San Fulgencio Urb. La Marina 20,0 18,4 21,3 87 0,3 2 ONO 13 2020-10-22 14:20:00
San Fulgencio Centro 20,0 18,0 20,7 85 0,0 13 NO 16 2020-10-22 14:30:00
San Miguel de Salinas 19,6 17,7 20,6 76 0,0 8 O 13 2020-10-22 13:33:00
Pilar de la Horadada Pinar de Campoverde 18,5 17,7 20,9 87 0,8 3 N 13 2020-10-22 14:41:00
Pilar de la Horadada Lo Monte 20,5 17,9 22,0 84 0,3 9 NNE 15 2020-10-22 14:40:00
Zonas Adyacentes
Abanilla 18,8 18,4 21,3 76 0,5 3 ONO 15 2020-10-22 14:30:00
Santomera Centro 19,2 18,8 20,9 86 0,5 10 NNO 16 2020-10-22 14:30:00
Murcia Santo Ángel 19,3 18,4 21,4 89 0,5 0 NNO 7 2020-10-22 14:30:00
Murcia Cañadas de San Pedro 19,1 17,2 20,4 90 1,2 2 NNE 8 2020-10-22 14:33:00
Molina de Segura La Espada 21,3 17,9 22,2 86 0,0 0 NNO 6 2020-10-22 14:34:00
San Javier 20,7 18,3 22,0 76 0,3 7 N 13 2020-10-22 14:30:00
Granada La Alhambra 14,8 12,7 17,2 92 20,8 0 SO 39 2020-10-22 14:30:00